Flugplatz - Wetter - Augsburg

[Quelle: ADDS]
METAR
EDMA 190220Z AUTO 05005KT 9999 // NCD 08/02 Q1025 =
EDMA 181700Z 1818/1903 07011KT CAVOK BECMG 1818/1820 07006KT
TAF
EDMA 181700Z 1818/1903 07011KT CAVOK BECMG 1818/1820 07006KT =
SR / SS: 04:20 / 18:13 UTC (Augsburg 2019-04-19)

Flugplatz - Wetter - Laupheim

[Quelle: ADDS]
METAR
ETHL 190220Z AUTO 03004KT 9999 // ////// 07/02 Q1025 /// =
TAF
SR / SS: 04:24 / 18:17 UTC (Laupheim 2019-04-19)

Flugplatz - Wetter - Memmingen

[Quelle: ADDS]
METAR
EDJA 181700Z 1818/1903 06010KT CAVOK BECMG 1818/1820 06005KT TAF
EDJA 181700Z 1818/1903 06010KT CAVOK BECMG 1818/1820 06005KT =
SR / SS: 04:23 / 18:13 UTC (Memmingen 2019-04-19)

Flugplatz - Wetter - Neuburg/Donau

[Quelle: ADDS]
METAR
ETSN 190220Z 01003KT 9999 08/02 Q1026 BLU+ =
ETSN 182200Z 1823/1908 06005KT 9999 NSW FEW220 BY ETGL
TAF
ETSN 182200Z 1823/1908 06005KT 9999 NSW FEW220 BY ETGL =
SR / SS: 04:17 / 18:11 UTC (Neuburg 2019-04-19)

Flugplatz - Wetter - Stuttgart

[Quelle: ADDS]
METAR
EDDS 190220Z 05003KT 350V080 CAVOK 08/02 Q1024 =
EDDS 182300Z 1900/1924 VRB03KT CAVOK BECMG 1907/1910 06007KT BECMG 1917/1920 VRB03KT
TAF
EDDS 182300Z 1900/1924 VRB03KT CAVOK BECMG 1907/1910 06007KT BECMG 1917/1920 VRB03KT =
SR / SS: 04:25 / 18:19 UTC (Stuttgart 2019-04-19)

Flugplatz - Wetter - Niederstetten

[Quelle: ADDS]
METAR
ETHN 190220Z 09010KT 9999 09/02 Q1025 BLU+ =
TAF
SR / SS: 04:22 / 18:19 UTC (Niederstetten 2019-04-19)